Avon, Indiana
Current Conditions -  °F | °C
As of 3:53 AM on Friday 28 Nov 2014 (Local Time) from KEYE Reporting Station
Scattered Clouds Scattered Clouds  
Wind Chill: 13°   Ceiling: Unl
Heat Index: 21°   Visibility: 8mi
Dew Point: 18°   Wind: 6mph
Humidity: 88%   Direction: 250°WSW
Pressure: 30.39"   Gusts: NA
Location:  39.76°N, 86.4°W
Report Text: KEYE 280853Z AUTO 25005KT 8SM SCT020 M06/M08 A3039 RMK AO2 SLP302 T10611078 53004
Loading
Personal Weather Stations






























Interactive Weather Map New forecast layout! Learn more

10-Day Weather Forecast

Advertisements
Track Severe Weather on mobile